Sterrenberg, Netherlands
Current Conditions -  °F | °C
As of 5:25 AM on Thursday 27 Nov 2014 (Local Time) from EHDL Reporting Station
Haze Haze  
Wind Chill: 38°   Ceiling: 800
Heat Index: 43°   Visibility: 6mi
Dew Point: 39°   Wind: 8mph
Humidity: 87%   Direction: 120°ESE
Pressure: 29.8"   Gusts: NA
Location:  51.99°N, 5.88°E
Report Text: EHDL 270425Z AUTO 12007KT 9000 BR OVC008 06/04 Q1009 GRN
Loading
Personal Weather Stations






























Interactive Weather Map New forecast layout! Learn more

10-Day Weather Forecast

Advertisements
Track Severe Weather on mobile